Time;durP1;ratioP1;P1;durP2;ratioP2;P2;SDS_P1;SDS_P2;PMS_P1;PMS_P2;Temp;Humidity;BMP_temperature;BMP_pressure;BME280_temperature;BME280_humidity;BME280_pressure;Samples;Min_cycle;Max_cycle;Signal;HPM_P1;HPM_P2
2022/08/20 00:00:55;;;;;;;;;;;;;;;20.09;100.00;101528.09;2614518;36;19973;-53
2022/08/20 00:03:26;;;;;;;;;;;;;;;20.12;100.00;101519.53;2613488;31;19988;-50
2022/08/20 00:05:58;;;;;;;;;;;;;;;20.07;100.00;101520.09;2615069;36;19943;-54
2022/08/20 00:08:27;;;;;;;;;;;;;;;20.05;100.00;101524.03;2614948;36;19951;-53
2022/08/20 00:10:55;;;;;;;;;;;;;;;20.01;100.00;101526.28;2614644;36;19995;-52
2022/08/20 00:13:24;;;;;;;;;;;;;;;20.08;100.00;101513.59;2614843;36;19945;-54
2022/08/20 00:15:55;;;;;;;;;;;;;;;20.04;100.00;101520.44;2615081;36;20317;-54
2022/08/20 00:18:24;;;;;;;;;;;;;;;20.03;100.00;101498.78;2614713;36;20401;-53
2022/08/20 00:20:53;;;;;;;;;;;;;;;19.99;100.00;101497.44;2614965;36;19939;-52
2022/08/20 00:23:22;;;;;;;;;;;;;;;20.02;100.00;101505.28;2614716;36;19983;-52
2022/08/20 00:25:50;;;;;;;;;;;;;;;20.03;100.00;101505.09;2615757;36;19983;-55
2022/08/20 00:28:19;;;;;;;;;;;;;;;20.04;100.00;101505.94;2614203;31;19950;-53
2022/08/20 00:30:47;;;;;;;;;;;;;;;20.04;100.00;101509.53;2614775;36;20752;-55
2022/08/20 00:33:19;;;;;;;;;;;;;;;20.02;100.00;101508.84;2614392;36;19999;-57
2022/08/20 00:35:50;;;;;;;;;;;;;;;20.05;100.00;101510.38;2614871;36;20002;-57
2022/08/20 00:38:19;;;;;;;;;;;;;;;20.02;100.00;101513.47;2614026;36;19951;-54
2022/08/20 00:40:48;;;;;;;;;;;;;;;20.07;100.00;101517.34;2614420;36;19947;-54
2022/08/20 00:43:28;;;;;;;;;;;;;;;20.04;100.00;101522.34;2614136;36;20447;-54
2022/08/20 00:45:56;;;;;;;;;;;;;;;19.99;100.00;101519.28;2611513;36;19958;-57
2022/08/20 00:48:30;;;;;;;;;;;;;;;19.97;100.00;101516.75;2613464;36;19951;-53
2022/08/20 00:51:04;;;;;;;;;;;;;;;19.89;100.00;101523.13;2612510;36;20332;-52
2022/08/20 00:53:33;;;;;;;;;;;;;;;19.85;100.00;101534.59;2614937;36;20422;-57
2022/08/20 00:56:02;;;;;;;;;;;;;;;19.84;100.00;101527.44;2612338;36;20034;-55
2022/08/20 00:58:30;;;;;;;;;;;;;;;19.84;100.00;101532.91;2613542;36;19943;-54
2022/08/20 01:00:59;;;;;;;;;;;;;;;19.89;100.00;101531.31;2612289;36;19974;-55
2022/08/20 01:03:30;;;;;;;;;;;;;;;19.91;100.00;101523.78;2613761;36;19951;-50
2022/08/20 01:05:58;;;;;;;;;;;;;;;19.85;100.00;101537.34;2611806;36;19955;-53
2022/08/20 01:08:26;;;;;;;;;;;;;;;19.73;100.00;101545.91;2611915;31;19951;-54
2022/08/20 01:11:04;;;;;;;;;;;;;;;19.79;100.00;101541.63;2612301;36;19947;-55
2022/08/20 01:13:32;;;;;;;;;;;;;;;19.76;100.00;101540.06;2612351;36;20409;-55
2022/08/20 01:16:01;;;;;;;;;;;;;;;19.78;100.00;101534.47;2612479;36;19950;-55
2022/08/20 01:18:32;;;;;;;;;;;;;;;19.78;100.00;101529.00;2612060;36;19960;-54
2022/08/20 01:21:01;;;;;;;;;;;;;;;19.78;100.00;101531.72;2612108;36;20573;-53
2022/08/20 01:23:31;;;;;;;;;;;;;;;19.82;100.00;101540.41;2611687;36;19951;-54
2022/08/20 01:26:04;;;;;;;;;;;;;;;19.84;100.00;101539.19;2612245;36;19957;-56
2022/08/20 01:28:35;;;;;;;;;;;;;;;19.84;100.00;101541.09;2612198;36;20440;-54
2022/08/20 01:31:04;;;;;;;;;;;;;;;19.83;100.00;101537.53;2613480;31;19985;-53
2022/08/20 01:33:35;;;;;;;;;;;;;;;19.81;100.00;101531.38;2611377;54;20450;-55
2022/08/20 01:36:03;;;;;;;;;;;;;;;19.83;100.00;101534.78;2612497;36;19954;-55
2022/08/20 01:38:31;;;;;;;;;;;;;;;19.87;100.00;101533.38;2612579;36;19971;-55
2022/08/20 01:41:08;;;;;;;;;;;;;;;19.87;100.00;101530.63;2613971;36;19954;-53
2022/08/20 01:43:36;;;;;;;;;;;;;;;19.80;100.00;101532.38;2614295;36;20436;-52
2022/08/20 01:46:04;;;;;;;;;;;;;;;19.80;100.00;101532.38;2612234;36;19978;-55
2022/08/20 01:48:33;;;;;;;;;;;;;;;19.75;100.00;101540.25;2613941;36;19947;-53
2022/08/20 01:51:04;;;;;;;;;;;;;;;19.75;100.00;101529.34;2613930;36;19946;-54
2022/08/20 01:53:36;;;;;;;;;;;;;;;19.76;100.00;101531.03;2614202;36;19954;-54
2022/08/20 01:56:08;;;;;;;;;;;;;;;19.70;100.00;101535.34;2612936;36;19950;-51
2022/08/20 01:58:37;;;;;;;;;;;;;;;19.75;100.00;101526.59;2613377;36;19954;-56
2022/08/20 02:01:05;;;;;;;;;;;;;;;19.70;100.00;101532.59;2614187;36;20507;-56
2022/08/20 02:03:33;;;;;;;;;;;;;;;19.70;100.00;101537.19;2613984;36;19978;-54
2022/08/20 02:06:02;;;;;;;;;;;;;;;19.66;100.00;101538.63;2614582;36;19946;-54
2022/08/20 02:08:32;;;;;;;;;;;;;;;19.70;100.00;101548.13;2613319;36;19950;-53
2022/08/20 02:11:00;;;;;;;;;;;;;;;19.72;100.00;101541.47;2614659;36;19973;-52
2022/08/20 02:13:31;;;;;;;;;;;;;;;19.76;100.00;101536.50;2614660;36;19946;-56
2022/08/20 02:15:59;;;;;;;;;;;;;;;19.74;100.00;101533.09;2614857;36;19981;-55
2022/08/20 02:18:27;;;;;;;;;;;;;;;19.77;100.00;101530.00;2613791;31;19977;-55
2022/08/20 02:20:55;;;;;;;;;;;;;;;19.75;100.00;101530.16;2615040;36;19977;-54
2022/08/20 02:23:23;;;;;;;;;;;;;;;19.67;100.00;101537.56;2614402;36;20007;-53
2022/08/20 02:25:51;;;;;;;;;;;;;;;19.68;100.00;101544.72;2614124;36;20005;-55
2022/08/20 02:28:20;;;;;;;;;;;;;;;19.67;100.00;101543.03;2614616;36;19965;-54
2022/08/20 02:30:54;;;;;;;;;;;;;;;19.61;100.00;101545.47;2614117;31;20375;-53
2022/08/20 02:33:23;;;;;;;;;;;;;;;19.54;100.00;101541.75;2614864;36;20352;-52
2022/08/20 02:35:51;;;;;;;;;;;;;;;19.51;100.00;101539.38;2613072;36;20038;-52
2022/08/20 02:38:19;;;;;;;;;;;;;;;19.44;100.00;101538.38;2613648;36;19981;-52
2022/08/20 02:40:48;;;;;;;;;;;;;;;19.45;100.00;101545.56;2614014;36;19955;-49
2022/08/20 02:43:20;;;;;;;;;;;;;;;19.47;100.00;101546.22;2614072;36;19959;-52
2022/08/20 02:45:51;;;;;;;;;;;;;;;19.48;100.00;101545.19;2614152;36;20427;-53
2022/08/20 02:48:22;;;;;;;;;;;;;;;19.33;100.00;101542.38;2614677;31;19954;-54
2022/08/20 02:50:52;;;;;;;;;;;;;;;19.33;100.00;101547.81;2615185;36;19947;-51
2022/08/20 02:53:21;;;;;;;;;;;;;;;19.35;100.00;101548.47;2613537;36;19951;-56
2022/08/20 02:55:49;;;;;;;;;;;;;;;19.34;100.00;101548.66;2615291;36;19954;-57
2022/08/20 02:58:18;;;;;;;;;;;;;;;19.28;100.00;101543.91;2614117;31;20550;-54
2022/08/20 03:00:46;;;;;;;;;;;;;;;19.16;100.00;101547.03;2613867;31;19977;-55
2022/08/20 03:03:21;;;;;;;;;;;;;;;19.20;100.00;101551.09;2614913;36;19958;-53
2022/08/20 03:05:50;;;;;;;;;;;;;;;19.23;100.00;101548.03;2614921;36;19969;-53
2022/08/20 03:08:18;;;;;;;;;;;;;;;19.23;100.00;101553.47;2613747;36;19981;-51
2022/08/20 03:10:47;;;;;;;;;;;;;;;19.24;100.00;101555.19;2613833;36;19954;-53
2022/08/20 03:13:16;;;;;;;;;;;;;;;19.22;100.00;101548.19;2613755;36;19951;-54
2022/08/20 03:15:46;;;;;;;;;;;;;;;19.23;100.00;101547.19;2614656;36;20436;-51
2022/08/20 03:18:18;;;;;;;;;;;;;;;19.20;100.00;101547.53;2613979;36;19955;-55
2022/08/20 03:20:48;;;;;;;;;;;;;;;19.11;100.00;101540.38;2613337;36;19946;-55
2022/08/20 03:23:16;;;;;;;;;;;;;;;19.10;100.00;101542.28;2612219;31;20365;-55
2022/08/20 03:25:45;;;;;;;;;;;;;;;19.07;100.00;101538.00;2615456;36;19974;-54
2022/08/20 03:28:13;;;;;;;;;;;;;;;19.07;100.00;101545.34;2612490;36;19974;-54
2022/08/20 03:30:42;;;;;;;;;;;;;;;19.06;100.00;101547.22;2615060;36;19961;-53
2022/08/20 03:33:10;;;;;;;;;;;;;;;19.09;100.00;101546.03;2613852;36;20349;-53
2022/08/20 03:35:41;;;;;;;;;;;;;;;19.07;100.00;101546.19;2615127;36;20355;-52
2022/08/20 03:38:10;;;;;;;;;;;;;;;19.04;100.00;101545.72;2614581;31;19985;-57
2022/08/20 03:40:38;;;;;;;;;;;;;;;19.04;100.00;101548.44;2614337;36;19950;-52
2022/08/20 03:43:07;;;;;;;;;;;;;;;18.95;100.00;101549.47;2614600;36;19946;-55
2022/08/20 03:45:36;;;;;;;;;;;;;;;18.90;100.00;101548.13;2614359;36;19943;-55
2022/08/20 03:48:06;;;;;;;;;;;;;;;18.83;100.00;101547.09;2614897;31;19958;-52
2022/08/20 03:50:34;;;;;;;;;;;;;;;18.77;100.00;101557.84;2614544;36;19989;-55
2022/08/20 03:53:05;;;;;;;;;;;;;;;18.70;100.00;101558.53;2613925;36;19963;-53
2022/08/20 03:55:34;;;;;;;;;;;;;;;18.68;100.00;101570.63;2614413;36;19958;-50
2022/08/20 03:58:04;;;;;;;;;;;;;;;18.62;100.00;101565.88;2614301;31;20013;-50
2022/08/20 04:00:34;;;;;;;;;;;;;;;18.48;100.00;101553.78;2613789;36;19942;-52
2022/08/20 04:03:02;;;;;;;;;;;;;;;18.36;100.00;101566.91;2615033;36;19981;-51
2022/08/20 04:05:31;;;;;;;;;;;;;;;18.36;100.00;101561.47;2614544;36;19947;-52
2022/08/20 04:07:59;;;;;;;;;;;;;;;18.38;100.00;101570.31;2613706;36;19951;-52
2022/08/20 04:10:30;;;;;;;;;;;;;;;18.44;100.00;101569.63;2614615;31;19951;-54
2022/08/20 04:12:58;;;;;;;;;;;;;;;18.46;100.00;101567.59;2613990;36;19950;-53
2022/08/20 04:15:26;;;;;;;;;;;;;;;18.48;100.00;101560.09;2614802;36;19954;-53
2022/08/20 04:17:54;;;;;;;;;;;;;;;18.55;100.00;101565.69;2614778;31;20339;-51
2022/08/20 04:20:25;;;;;;;;;;;;;;;18.59;100.00;101566.22;2614127;36;20014;-56
2022/08/20 04:22:53;;;;;;;;;;;;;;;18.59;100.00;101568.94;2615276;36;20353;-53
2022/08/20 04:25:21;;;;;;;;;;;;;;;18.65;100.00;101570.97;2614898;36;19950;-56
2022/08/20 04:27:52;;;;;;;;;;;;;;;18.64;100.00;101570.13;2613843;31;19946;-53
2022/08/20 04:30:22;;;;;;;;;;;;;;;18.62;100.00;101565.88;2614094;31;19938;-54
2022/08/20 04:32:50;;;;;;;;;;;;;;;18.60;100.00;101568.78;2613405;36;19947;-52
2022/08/20 04:35:19;;;;;;;;;;;;;;;18.64;100.00;101569.25;2614122;31;20351;-54
2022/08/20 04:37:48;;;;;;;;;;;;;;;18.63;100.00;101578.50;2613585;36;19947;-52
2022/08/20 04:43:03;;;;;;;;;;;;;;;18.57;100.00;101580.03;2613882;36;19939;-52
2022/08/20 04:45:32;;;;;;;;;;;;;;;18.57;100.00;101588.19;2613970;36;19966;-53
2022/08/20 04:48:04;;;;;;;;;;;;;;;18.57;100.00;101588.19;2614873;31;20369;-54
2022/08/20 04:50:33;;;;;;;;;;;;;;;18.52;100.00;101587.84;2611822;36;19957;-54
2022/08/20 04:53:02;;;;;;;;;;;;;;;18.44;100.00;101585.97;2603955;36;19946;-51
2022/08/20 04:55:30;;;;;;;;;;;;;;;18.44;100.00;101596.88;2604112;36;19973;-51
2022/08/20 04:57:58;;;;;;;;;;;;;;;18.47;100.00;101603.88;2604502;36;19947;-51
2022/08/20 05:00:30;;;;;;;;;;;;;;;18.48;100.00;101602.88;2611596;36;19958;-54
2022/08/20 05:02:58;;;;;;;;;;;;;;;18.46;100.00;101599.44;2614324;36;20423;-52
2022/08/20 05:05:26;;;;;;;;;;;;;;;18.42;100.00;101609.84;2612740;36;19965;-55
2022/08/20 05:07:56;;;;;;;;;;;;;;;18.42;100.00;101598.94;2613636;36;19950;-49
2022/08/20 05:10:25;;;;;;;;;;;;;;;18.33;100.00;101591.75;2614678;36;19953;-53
2022/08/20 05:12:53;;;;;;;;;;;;;;;18.28;100.00;101602.31;2613510;36;19957;-54
2022/08/20 05:15:23;;;;;;;;;;;;;;;18.26;100.00;101607.09;2614461;31;20430;-56
2022/08/20 05:17:56;;;;;;;;;;;;;;;18.20;100.00;101605.91;2611924;36;19951;-52
2022/08/20 05:20:26;;;;;;;;;;;;;;;18.12;100.00;101608.59;2610044;36;20787;-54
2022/08/20 05:22:55;;;;;;;;;;;;;;;18.12;100.00;101612.16;2610911;36;19954;-54
2022/08/20 05:25:23;;;;;;;;;;;;;;;18.12;100.00;101620.34;2611524;36;20045;-52
2022/08/20 05:27:51;;;;;;;;;;;;;;;18.09;100.00;101614.38;2614205;36;20030;-53
2022/08/20 05:30:19;;;;;;;;;;;;;;;18.08;100.00;101629.88;2613582;36;19966;-53
2022/08/20 05:32:48;;;;;;;;;;;;;;;18.08;100.00;101624.44;2612231;36;19989;-53
2022/08/20 05:35:18;;;;;;;;;;;;;;;18.12;100.00;101624.94;2611806;36;19973;-54
2022/08/20 05:37:46;;;;;;;;;;;;;;;18.20;100.00;101617.63;2612715;36;19978;-53
2022/08/20 05:40:15;;;;;;;;;;;;;;;18.17;100.00;101620.72;2612191;36;19988;-54
2022/08/20 05:42:43;;;;;;;;;;;;;;;18.11;100.00;101621.38;2611990;36;20335;-50
2022/08/20 05:45:12;;;;;;;;;;;;;;;18.12;100.00;101630.41;2612128;36;19950;-49
2022/08/20 05:47:40;;;;;;;;;;;;;;;18.04;100.00;101628.50;2613452;36;19951;-52
2022/08/20 05:50:09;;;;;;;;;;;;;;;18.03;100.00;101630.41;2613916;36;19946;-53
2022/08/20 05:52:40;;;;;;;;;;;;;;;18.07;100.00;101633.63;2613824;36;19950;-51
2022/08/20 05:55:10;;;;;;;;;;;;;;;18.03;100.00;101638.56;2615089;36;20001;-54
2022/08/20 05:57:38;;;;;;;;;;;;;;;18.08;100.00;101629.88;2613024;36;19955;-52
2022/08/20 06:00:07;;;;;;;;;;;;;;;18.08;100.00;101638.06;2614798;36;19950;-54
2022/08/20 06:05:18;;;;;;;;;;;;;;;18.20;100.00;101644.88;2613699;36;19946;-53
2022/08/20 06:07:49;;;;;;;;;;;;;;;18.32;100.00;101637.25;2614851;31;20009;-54
2022/08/20 06:10:18;;;;;;;;;;;;;;;18.36;100.00;101635.06;2613693;36;20558;-51
2022/08/20 06:12:46;;;;;;;;;;;;;;;18.42;100.00;101641.66;2614461;36;20343;-55
2022/08/20 06:15:14;;;;;;;;;;;;;;;18.59;100.00;101634.38;2614029;36;19950;-53
2022/08/20 06:17:42;;;;;;;;;;;;;;;18.70;100.00;101637.59;2614282;36;19983;-52
2022/08/20 06:20:11;;;;;;;;;;;;;;;18.82;100.00;101643.56;2614841;36;19950;-53
2022/08/20 06:22:39;;;;;;;;;;;;;;;18.97;100.00;101646.47;2614423;36;19951;-55
2022/08/20 06:25:11;;;;;;;;;;;;;;;19.20;100.00;101651.25;2614623;36;20429;-49
2022/08/20 06:27:39;;;;;;;;;;;;;;;19.35;100.00;101651.38;2613862;36;19973;-56
2022/08/20 06:30:08;;;;;;;;;;;;;;;19.39;100.00;101645.38;2614772;36;19953;-53
2022/08/20 06:32:36;;;;;;;;;;;;;;;19.48;100.00;101638.00;2614824;36;19977;-51
2022/08/20 06:35:05;;;;;;;;;;;;;;;19.52;100.00;101636.63;2612983;36;19958;-54
2022/08/20 06:37:35;;;;;;;;;;;;;;;19.51;100.00;101637.66;2613783;31;19954;-55
2022/08/20 06:40:15;;;;;;;;;;;;;;;19.37;100.00;101643.84;2615083;36;20413;-53
2022/08/20 06:42:51;;;;;;;;;;;;;;;19.21;100.00;101640.16;2614655;36;22199;-50
2022/08/20 06:45:23;;;;;;;;;;;;;;;19.12;100.00;101643.91;2614104;36;19954;-55
2022/08/20 06:47:52;;;;;;;;;;;;;;;19.08;100.00;101642.56;2614114;36;19970;-51
2022/08/20 06:50:21;;;;;;;;;;;;;;;19.08;100.00;101639.84;2614502;31;19950;-54
2022/08/20 06:52:49;;;;;;;;;;;;;;;19.14;100.00;101649.19;2614917;36;19950;-50
2022/08/20 06:55:18;;;;;;;;;;;;;;;19.22;100.00;101644.56;2612776;36;19946;-53
2022/08/20 06:57:47;;;;;;;;;;;;;;;19.48;100.00;101648.94;2614075;36;19985;-48
2022/08/20 07:00:20;;;;;;;;;;;;;;;19.70;100.00;101641.84;2613768;36;20416;-53
2022/08/20 07:02:48;;;;;;;;;;;;;;;19.76;100.00;101645.75;2612152;36;19958;-54
2022/08/20 07:05:17;;;;;;;;;;;;;;;19.95;100.00;101647.25;2614329;31;19947;-56
2022/08/20 07:07:46;;;;;;;;;;;;;;;19.82;100.00;101652.41;2613932;31;19957;-54
2022/08/20 07:10:16;;;;;;;;;;;;;;;20.01;100.00;101649.25;2614448;36;19950;-52
2022/08/20 07:12:45;;;;;;;;;;;;;;;20.09;100.00;101645.59;2614701;31;19973;-55
2022/08/20 07:15:14;;;;;;;;;;;;;;;20.12;100.00;101640.63;2614364;36;19949;-51
2022/08/20 07:17:49;;;;;;;;;;;;;;;20.11;100.00;101638.06;2614400;36;19950;-50
2022/08/20 07:20:17;;;;;;;;;;;;;;;20.37;100.00;101642.34;2613775;36;19961;-52
2022/08/20 07:22:45;;;;;;;;;;;;;;;20.57;100.00;101640.84;2614253;36;20009;-50
2022/08/20 07:25:15;;;;;;;;;;;;;;;20.67;100.00;101642.50;2615049;36;19969;-52
2022/08/20 07:27:43;;;;;;;;;;;;;;;20.84;100.00;101644.06;2613830;36;19977;-52
2022/08/20 07:32:56;;;;;;;;;;;;;;;20.78;100.00;101645.63;2612832;36;20071;-53
2022/08/20 07:35:25;;;;;;;;;;;;;;;20.94;100.00;101647.38;2613497;36;19984;-55
2022/08/20 07:37:55;;;;;;;;;;;;;;;21.19;100.00;101647.13;2614106;36;19950;-52
2022/08/20 07:40:26;;;;;;;;;;;;;;;21.03;100.00;101642.69;2615834;31;20049;-53
2022/08/20 07:42:54;;;;;;;;;;;;;;;20.90;100.00;101643.31;2613292;36;19977;-51
2022/08/20 07:45:22;;;;;;;;;;;;;;;21.18;100.00;101646.28;2614663;36;19955;-52
2022/08/20 07:47:52;;;;;;;;;;;;;;;21.14;100.00;101638.63;2614396;36;20483;-53
2022/08/20 07:50:26;;;;;;;;;;;;;;;21.08;100.00;101645.72;2614655;36;19955;-51
2022/08/20 07:52:54;;;;;;;;;;;;;;;21.17;100.00;101643.72;2612183;36;19998;-52
2022/08/20 07:55:23;;;;;;;;;;;;;;;21.33;100.00;101649.03;2613364;36;19953;-52
2022/08/20 07:57:51;;;;;;;;;;;;;;;21.15;100.00;101651.28;2614320;36;19946;-52
2022/08/20 08:00:21;;;;;;;;;;;;;;;21.09;100.00;101660.25;2612780;36;19954;-54
2022/08/20 08:02:49;;;;;;;;;;;;;;;21.46;100.00;101651.09;2613850;36;20488;-56
2022/08/20 08:05:17;;;;;;;;;;;;;;;21.38;100.00;101653.09;2614216;36;19974;-53
2022/08/20 08:07:48;;;;;;;;;;;;;;;21.28;100.00;101651.47;2613561;36;19997;-53
2022/08/20 08:10:18;;;;;;;;;;;;;;;21.16;100.00;101656.56;2612900;36;19946;-55
2022/08/20 08:12:48;;;;;;;;;;;;;;;21.17;100.00;101654.66;2610863;36;19946;-54
2022/08/20 08:15:17;;;;;;;;;;;;;;;21.59;100.00;101653.22;2614284;36;19993;-57
2022/08/20 08:17:47;;;;;;;;;;;;;;;21.94;100.00;101656.19;2612873;31;19975;-55
2022/08/20 08:20:16;;;;;;;;;;;;;;;22.43;100.00;101653.81;2613633;36;20042;-56
2022/08/20 08:22:45;;;;;;;;;;;;;;;22.17;100.00;101661.53;2612907;36;19969;-55
2022/08/20 08:25:16;;;;;;;;;;;;;;;21.99;100.00;101656.47;2613706;36;19950;-52
2022/08/20 08:27:47;;;;;;;;;;;;;;;22.02;100.00;101664.28;2613326;36;19985;-55
2022/08/20 08:30:16;;;;;;;;;;;;;;;21.98;100.00;101663.00;2615529;31;19950;-56
2022/08/20 08:35:24;;;;;;;;;;;;;;;22.20;100.00;101679.47;2612784;36;20472;-56
2022/08/20 08:37:52;;;;;;;;;;;;;;;22.26;100.00;101672.38;2614298;31;19951;-57
2022/08/20 08:40:23;;;;;;;;;;;;;;;22.58;100.00;101673.78;2613869;36;19951;-55
2022/08/20 08:42:56;;;;;;;;;;;;;;;22.43;100.00;101670.28;2611969;36;19938;-57
2022/08/20 08:45:25;;;;;;;;;;;;;;;22.73;100.00;101670.97;2611625;36;19954;-57
2022/08/20 08:47:54;;;;;;;;;;;;;;;22.31;100.00;101678.97;2611671;36;20385;-57
2022/08/20 08:50:24;;;;;;;;;;;;;;;22.41;100.00;101684.19;2610219;36;19974;-58
2022/08/20 08:52:58;;;;;;;;;;;;;;;22.28;100.00;101684.84;2609886;36;20579;-58
2022/08/20 08:55:32;;;;;;;;;;;;;;;22.52;100.00;101682.81;2611795;36;19951;-57
2022/08/20 08:58:02;;;;;;;;;;;;;;;22.37;100.00;101693.84;2610643;36;19951;-58
2022/08/20 09:00:31;;;;;;;;;;;;;;;22.62;100.00;101691.56;2611431;36;19958;-56
2022/08/20 09:03:02;;;;;;;;;;;;;;;22.73;100.00;101688.31;2612712;36;19950;-58
2022/08/20 09:05:33;;;;;;;;;;;;;;;22.48;100.00;101687.00;2612767;36;19946;-59
2022/08/20 09:08:03;;;;;;;;;;;;;;;22.55;100.00;101682.41;2614437;36;19977;-59
2022/08/20 09:10:34;;;;;;;;;;;;;;;22.55;100.00;101679.69;2614615;31;19954;-59
2022/08/20 09:13:02;;;;;;;;;;;;;;;22.68;100.00;101692.69;2614439;36;19947;-57
2022/08/20 09:15:30;;;;;;;;;;;;;;;22.90;100.00;101690.78;2614417;36;19954;-57
2022/08/20 09:17:58;;;;;;;;;;;;;;;22.98;100.00;101684.28;2614551;36;19939;-60
2022/08/20 09:20:27;;;;;;;;;;;;;;;23.05;100.00;101694.28;2614527;36;19959;-58
2022/08/20 09:22:55;;;;;;;;;;;;;;;22.89;100.00;101691.81;2614754;36;19973;-58
2022/08/20 09:25:23;;;;;;;;;;;;;;;23.59;100.00;101686.44;2614922;36;19997;-59
2022/08/20 09:27:54;;;;;;;;;;;;;;;22.78;100.00;101686.88;2615431;36;19981;-57
2022/08/20 09:30:22;;;;;;;;;;;;;;;23.20;100.00;101686.00;2614569;36;20459;-58
2022/08/20 09:32:50;;;;;;;;;;;;;;;23.22;100.00;101680.31;2614625;36;19982;-58
2022/08/20 09:35:19;;;;;;;;;;;;;;;23.29;100.00;101675.66;2614625;36;19955;-58
2022/08/20 09:37:47;;;;;;;;;;;;;;;23.76;100.00;101686.94;2614755;36;19954;-58
2022/08/20 09:40:15;;;;;;;;;;;;;;;24.02;100.00;101686.25;2613930;31;19969;-59
2022/08/20 09:42:43;;;;;;;;;;;;;;;23.91;100.00;101686.84;2614007;36;19958;-60
2022/08/20 09:45:14;;;;;;;;;;;;;;;23.32;100.00;101678.03;2615243;36;19982;-59
2022/08/20 09:47:43;;;;;;;;;;;;;;;23.40;100.00;101694.34;2614536;36;19962;-61
2022/08/20 09:50:11;;;;;;;;;;;;;;;23.01;100.00;101694.88;2616264;36;20380;-57
2022/08/20 09:52:47;;;;;;;;;;;;;;;22.78;100.00;101686.88;2615612;36;19954;-59
2022/08/20 09:55:19;;;;;;;;;;;;;;;22.59;100.00;101686.47;2615386;36;19958;-59
2022/08/20 09:57:47;;;;;;;;;;;;;;;22.35;100.00;101694.03;2615654;36;19955;-60
2022/08/20 10:00:19;;;;;;;;;;;;;;;22.64;100.00;101686.72;2615465;31;20325;-60
2022/08/20 10:02:47;;;;;;;;;;;;;;;22.96;100.00;101681.75;2615046;36;20787;-61
2022/08/20 10:05:16;;;;;;;;;;;;;;;23.25;100.00;101680.72;2615712;36;19989;-59
2022/08/20 10:07:44;;;;;;;;;;;;;;;23.35;100.00;101683.13;2615425;36;21003;-60
2022/08/20 10:10:14;;;;;;;;;;;;;;;23.59;100.00;101687.28;2615300;36;19939;-60
2022/08/20 10:12:45;;;;;;;;;;;;;;;23.93;100.00;101682.84;2615910;31;20001;-59
2022/08/20 10:15:14;;;;;;;;;;;;;;;24.02;100.00;101680.75;2615248;31;20424;-57
2022/08/20 10:17:44;;;;;;;;;;;;;;;24.56;100.00;101680.88;2615504;36;20357;-60
2022/08/20 10:20:14;;;;;;;;;;;;;;;24.24;100.00;101686.13;2614196;36;19946;-58
2022/08/20 10:22:42;;;;;;;;;;;;;;;24.17;100.00;101693.50;2614249;36;20414;-56
2022/08/20 10:25:11;;;;;;;;;;;;;;;24.25;100.00;101693.34;2613276;36;20401;-59
2022/08/20 10:27:39;;;;;;;;;;;;;;;24.29;100.00;101689.94;2612139;36;20194;-59
2022/08/20 10:30:08;;;;;;;;;;;;;;;24.16;100.00;101689.03;2612868;36;19950;-60
2022/08/20 10:32:36;;;;;;;;;;;;;;;24.24;100.00;101692.47;2613676;36;19966;-61
2022/08/20 10:35:07;;;;;;;;;;;;;;;24.28;100.00;101693.75;2613499;31;19950;-59
2022/08/20 10:37:35;;;;;;;;;;;;;;;24.66;90.32;101692.38;2613528;36;19954;-60
2022/08/20 10:40:03;;;;;;;;;;;;;;;24.75;94.91;101690.25;2613930;31;19946;-60
2022/08/20 10:42:31;;;;;;;;;;;;;;;24.98;100.00;101681.59;2614166;36;19950;-59
2022/08/20 10:45:00;;;;;;;;;;;;;;;25.02;81.72;101682.88;2614041;36;20045;-59
2022/08/20 10:47:29;;;;;;;;;;;;;;;24.24;85.35;101686.13;2614452;36;19951;-60
2022/08/20 10:49:58;;;;;;;;;;;;;;;24.02;84.13;101685.41;2613867;31;19946;-60
2022/08/20 10:52:29;;;;;;;;;;;;;;;23.60;92.22;101689.00;2613494;36;19954;-59
2022/08/20 10:54:57;;;;;;;;;;;;;;;23.38;100.00;101684.59;2613515;36;20375;-59
2022/08/20 10:57:26;;;;;;;;;;;;;;;23.59;100.00;101692.78;2614374;36;19950;-58
2022/08/20 10:59:55;;;;;;;;;;;;;;;23.53;100.00;101693.59;2614147;36;20449;-59
2022/08/20 11:02:24;;;;;;;;;;;;;;;23.65;100.00;101691.13;2613263;36;19955;-59
2022/08/20 11:04:52;;;;;;;;;;;;;;;24.31;94.41;101696.09;2613848;36;20073;-60
2022/08/20 11:07:21;;;;;;;;;;;;;;;24.76;75.72;101691.97;2614425;36;20336;-59
2022/08/20 11:09:52;;;;;;;;;;;;;;;25.32;75.03;101682.44;2614491;36;20324;-60
2022/08/20 11:12:21;;;;;;;;;;;;;;;25.49;67.68;101680.09;2614219;36;19950;-60
2022/08/20 11:14:50;;;;;;;;;;;;;;;25.62;64.17;101677.28;2614397;36;19951;-59
2022/08/20 11:17:23;;;;;;;;;;;;;;;25.74;70.80;101676.63;2611649;36;20452;-58
2022/08/20 11:19:51;;;;;;;;;;;;;;;25.43;76.28;101676.28;2613658;36;19983;-60
2022/08/20 11:22:20;;;;;;;;;;;;;;;24.77;63.35;101683.50;2612576;36;19946;-58
2022/08/20 11:24:48;;;;;;;;;;;;;;;25.18;70.09;101687.09;2614499;36;20458;-59
2022/08/20 11:27:21;;;;;;;;;;;;;;;25.15;70.56;101687.53;2613745;36;19974;-59
2022/08/20 11:29:49;;;;;;;;;;;;;;;25.78;66.68;101683.38;2614716;36;19946;-58
2022/08/20 11:32:17;;;;;;;;;;;;;;;25.84;62.51;101693.56;2611384;36;19953;-58
2022/08/20 11:34:46;;;;;;;;;;;;;;;25.80;62.55;101681.25;2612931;36;19951;-59
2022/08/20 11:37:14;;;;;;;;;;;;;;;26.01;64.41;101689.25;2613033;36;19974;-58
2022/08/20 11:39:42;;;;;;;;;;;;;;;26.00;69.21;101689.47;2613121;36;19946;-59
2022/08/20 11:42:10;;;;;;;;;;;;;;;26.68;66.41;101694.44;2599022;36;20436;-58
2022/08/20 11:44:41;;;;;;;;;;;;;;;26.84;63.50;101686.66;2610727;36;19974;-57
2022/08/20 11:47:10;;;;;;;;;;;;;;;26.97;64.06;101688.47;2612975;36;19974;-58
2022/08/20 11:49:38;;;;;;;;;;;;;;;27.44;55.80;101697.19;2614167;36;19951;-58
2022/08/20 11:52:07;;;;;;;;;;;;;;;26.90;56.60;101689.38;2610680;36;19958;-58
2022/08/20 11:54:39;;;;;;;;;;;;;;;26.97;55.37;101694.00;2607155;36;19977;-57
2022/08/20 11:57:07;;;;;;;;;;;;;;;26.93;65.64;101685.31;2613219;36;20038;-59
2022/08/20 11:59:35;;;;;;;;;;;;;;;26.26;61.87;101684.91;2614218;36;19950;-59
2022/08/20 12:02:06;;;;;;;;;;;;;;;26.54;60.06;101682.59;2613643;36;19947;-58
2022/08/20 12:04:34;;;;;;;;;;;;;;;27.03;73.13;101684.78;2615931;36;20286;-58
2022/08/20 12:07:09;;;;;;;;;;;;;;;26.36;57.01;101685.28;2612681;36;19998;-55
2022/08/20 12:09:37;;;;;;;;;;;;;;;26.38;60.11;101686.75;2613169;36;19947;-56
2022/08/20 12:12:05;;;;;;;;;;;;;;;26.73;56.53;101682.72;2613370;36;19946;-57
2022/08/20 12:14:33;;;;;;;;;;;;;;;26.86;67.38;101679.84;2614972;36;19951;-56
2022/08/20 12:17:11;;;;;;;;;;;;;;;27.36;52.54;101678.16;2612617;36;19950;-56
2022/08/20 12:19:40;;;;;;;;;;;;;;;27.38;57.29;101682.34;2614173;36;19950;-53
2022/08/20 12:22:08;;;;;;;;;;;;;;;27.43;57.17;101678.94;2613500;36;19947;-54
2022/08/20 12:24:36;;;;;;;;;;;;;;;27.39;55.55;101678.53;2614603;36;19958;-57
2022/08/20 12:27:10;;;;;;;;;;;;;;;27.31;60.74;101677.94;2613295;36;19954;-56
2022/08/20 12:29:38;;;;;;;;;;;;;;;27.66;60.41;101674.63;2614797;36;19994;-55
2022/08/20 12:32:07;;;;;;;;;;;;;;;27.47;58.23;101669.06;2613508;36;19961;-56
2022/08/20 12:34:39;;;;;;;;;;;;;;;27.35;59.32;101673.69;2611698;36;19989;-58
2022/08/20 12:37:08;;;;;;;;;;;;;;;27.20;67.72;101671.25;2613148;36;19951;-57
2022/08/20 12:39:39;;;;;;;;;;;;;;;27.76;59.56;101667.47;2614764;36;19965;-56
2022/08/20 12:42:07;;;;;;;;;;;;;;;28.23;55.61;101669.66;2611388;36;20392;-54
2022/08/20 12:44:35;;;;;;;;;;;;;;;27.88;52.60;101667.53;2615197;36;19954;-58
2022/08/20 12:47:07;;;;;;;;;;;;;;;27.49;58.19;101672.47;2611870;36;19958;-55
2022/08/20 12:49:38;;;;;;;;;;;;;;;26.90;54.32;101663.69;2613430;36;19962;-55